Map

Track Data

SID SEASON NUMBER BASIN SUBBASIN NAME ISO_TIME NATURE LAT LON WMO_WIND WMO_PRES WMO_AGENCY TRACK_TYPE DIST2LAND LANDFALL IFLAG USA_AGENCY USA_ATCF_ID USA_LAT USA_LON USA_RECORD USA_STATUS USA_WIND USA_PRES USA_SSHS USA_R34_NE USA_R34_SE USA_R34_SW USA_R34_NW USA_R50_NE USA_R50_SE USA_R50_SW USA_R50_NW USA_R64_NE USA_R64_SE USA_R64_SW USA_R64_NW USA_POCI USA_ROCI USA_RMW USA_EYE TOKYO_LAT TOKYO_LON TOKYO_GRADE TOKYO_WIND TOKYO_PRES TOKYO_R50_DIR TOKYO_R50_LONG TOKYO_R50_SHORT TOKYO_R30_DIR TOKYO_R30_LONG TOKYO_R30_SHORT TOKYO_LAND CMA_LAT CMA_LON CMA_CAT CMA_WIND CMA_PRES HKO_LAT HKO_LON HKO_CAT HKO_WIND HKO_PRES NEWDELHI_LAT NEWDELHI_LON NEWDELHI_GRADE NEWDELHI_WIND NEWDELHI_PRES NEWDELHI_CI NEWDELHI_DP NEWDELHI_POCI REUNION_LAT REUNION_LON REUNION_TYPE REUNION_WIND REUNION_PRES REUNION_TNUM REUNION_CI REUNION_RMW REUNION_R34_NE REUNION_R34_SE REUNION_R34_SW REUNION_R34_NW REUNION_R50_NE REUNION_R50_SE REUNION_R50_SW REUNION_R50_NW REUNION_R64_NE REUNION_R64_SE REUNION_R64_SW REUNION_R64_NW BOM_LAT BOM_LON BOM_TYPE BOM_WIND BOM_PRES BOM_TNUM BOM_CI BOM_RMW BOM_R34_NE BOM_R34_SE BOM_R34_SW BOM_R34_NW BOM_R50_NE BOM_R50_SE BOM_R50_SW BOM_R50_NW BOM_R64_NE BOM_R64_SE BOM_R64_SW BOM_R64_NW BOM_ROCI BOM_POCI BOM_EYE BOM_POS_METHOD BOM_PRES_METHOD NADI_LAT NADI_LON NADI_CAT NADI_WIND NADI_PRES WELLINGTON_LAT WELLINGTON_LON WELLINGTON_WIND WELLINGTON_PRES DS824_LAT DS824_LON DS824_STAGE DS824_WIND DS824_PRES TD9636_LAT TD9636_LON TD9636_STAGE TD9636_WIND TD9636_PRES TD9635_LAT TD9635_LON TD9635_WIND TD9635_PRES TD9635_ROCI NEUMANN_LAT NEUMANN_LON NEUMANN_CLASS NEUMANN_WIND NEUMANN_PRES MLC_LAT MLC_LON MLC_CLASS MLC_WIND MLC_PRES USA_GUST BOM_GUST BOM_GUST_PER REUNION_GUST REUNION_GUST_PER USA_SEAHGT USA_SEARAD_NE USA_SEARAD_SE USA_SEARAD_SW USA_SEARAD_NW STORM_SPEED STORM_DIR
1971264N12321 1971 121 NA NA JANICE 1971-09-21 06:00:00 TS 11.5000 -38.8000 25 hurdat_atl main 1595 1501 O_____________ hurdat_atl AL191971 11.5000 -38.8000 TD 25 -1 21 273
1971264N12321 1971 121 NA NA JANICE 1971-09-21 09:00:00 TS 11.5509 -39.8750 main 1498 1416 P_____________ AL191971 11.5509 -39.8750 TD 25 -1 21 273
1971264N12321 1971 121 NA NA JANICE 1971-09-21 12:00:00 TS 11.6000 -40.9000 25 hurdat_atl main 1407 1328 O_____________ hurdat_atl AL191971 11.6000 -40.9000 TD 25 -1 19 273
1971264N12321 1971 121 NA NA JANICE 1971-09-21 15:00:00 TS 11.6496 -41.8375 main 1328 1258 P_____________ AL191971 11.6496 -41.8375 TD 27 -1 18 273
1971264N12321 1971 121 NA NA JANICE 1971-09-21 18:00:00 TS 11.7000 -42.7000 30 hurdat_atl main 1258 1193 O_____________ hurdat_atl AL191971 11.7000 -42.7000 TD 30 -1 17 273
1971264N12321 1971 121 NA NA JANICE 1971-09-21 21:00:00 TS 11.7422 -43.5226 main 1193 1140 P_____________ AL191971 11.7422 -43.5226 TD 30 -1 16 274
1971264N12321 1971 121 NA NA JANICE 1971-09-22 00:00:00 TS 11.8000 -44.3000 30 hurdat_atl main 1140 1098 O_____________ hurdat_atl AL191971 11.8000 -44.3000 TD 30 -1 15 275
1971264N12321 1971 121 NA NA JANICE 1971-09-22 03:00:00 TS 11.8773 -45.0651 main 1091 1053 P_____________ AL191971 11.8773 -45.0651 TD 35 0 15 278
1971264N12321 1971 121 NA NA JANICE 1971-09-22 06:00:00 TS 12.0000 -45.8000 40 hurdat_atl main 1053 1026 O_____________ hurdat_atl AL191971 12.0000 -45.8000 TS 40 0 14 281
1971264N12321 1971 121 NA NA JANICE 1971-09-22 09:00:00 TS 12.1623 -46.5152 main 1030 999 P_____________ AL191971 12.1623 -46.5152 TS 40 0 14 286
1971264N12321 1971 121 NA NA JANICE 1971-09-22 12:00:00 TS 12.4000 -47.2000 40 1009 hurdat_atl main 1001 988 O_____________ hurdat_atl AL191971 12.4000 -47.2000 TS 40 1009 0 14 294
1971264N12321 1971 121 NA NA JANICE 1971-09-22 15:00:00 TS 12.7347 -47.8500 main 991 986 P_____________ AL191971 12.7347 -47.8500 TS 47 1007 0 15 299
1971264N12321 1971 121 NA NA JANICE 1971-09-22 18:00:00 TS 13.1000 -48.5000 55 1005 hurdat_atl main 992 987 O_____________ hurdat_atl AL191971 13.1000 -48.5000 TS 55 1005 0 15 297
1971264N12321 1971 121 NA NA JANICE 1971-09-22 21:00:00 TS 13.3999 -49.2002 main 989 983 P_____________ AL191971 13.3999 -49.2002 TS 55 0 15 294
1971264N12321 1971 121 NA NA JANICE 1971-09-23 00:00:00 TS 13.7000 -49.9000 55 hurdat_atl main 992 987 O_____________ hurdat_atl AL191971 13.7000 -49.9000 TS 55 0 15 296
1971264N12321 1971 121 NA NA JANICE 1971-09-23 03:00:00 TS 14.0497 -50.5501 main 989 989 P_____________ AL191971 14.0497 -50.5501 TS 52 0 14 299
1971264N12321 1971 121 NA NA JANICE 1971-09-23 06:00:00 TS 14.4000 -51.2000 50 hurdat_atl main 1007 1003 O_____________ hurdat_atl AL191971 14.4000 -51.2000 TS 50 0 15 296
1971264N12321 1971 121 NA NA JANICE 1971-09-23 09:00:00 TS 14.6924 -51.9003 main 1017 1014 P_____________ AL191971 14.6924 -51.9003 TS 50 0 15 294
1971264N12321 1971 121 NA NA JANICE 1971-09-23 12:00:00 TS 15.0000 -52.6000 50 hurdat_atl main 1030 995 O_____________ hurdat_atl AL191971 15.0000 -52.6000 TS 50 0 15 299
1971264N12321 1971 121 NA NA JANICE 1971-09-23 15:00:00 TS 15.4072 -53.2574 main 986 957 P_____________ AL191971 15.4072 -53.2574 TS 47 0 15 303
1971264N12321 1971 121 NA NA JANICE 1971-09-23 18:00:00 TS 15.8000 -53.9000 45 hurdat_atl main 957 920 O_____________ hurdat_atl AL191971 15.8000 -53.9000 TS 45 0 14 298
1971264N12321 1971 121 NA NA JANICE 1971-09-23 21:00:00 TS 16.0494 -54.5133 main 920 886 P_____________ AL191971 16.0494 -54.5133 TS 45 0 13 292
1971264N12321 1971 121 NA NA JANICE 1971-09-24 00:00:00 TS 16.3000 -55.2000 45 hurdat_atl main 886 853 O_____________ hurdat_atl AL191971 16.3000 -55.2000 TS 45 0 16 292
1971264N12321 1971 121 NA NA JANICE 1971-09-24 03:00:00 TS 16.6627 -56.0775 main 855 832 P_____________ AL191971 16.6627 -56.0775 TS 40 0 19 295
1971264N12321 1971 121 NA NA JANICE 1971-09-24 06:00:00 TS 17.1000 -57.0000 35 1006 hurdat_atl main 836 829 O_____________ hurdat_atl AL191971 17.1000 -57.0000 TS 35 1006 0 19 298
1971264N12321 1971 121 NA NA JANICE 1971-09-24 09:00:00 TS 17.5622 -57.8305 main 828 739 P_____________ AL191971 17.5622 -57.8305 TS 32 -1 18 303
1971264N12321 1971 121 NA NA JANICE 1971-09-24 12:00:00 TS 18.1000 -58.6000 30 hurdat_atl main 739 665 O_____________ hurdat_atl AL191971 18.1000 -58.6000 TD 30 -1 18 310
1971264N12321 1971 121 NA NA JANICE 1971-09-24 15:00:00 TS 18.7255 -59.3138 main 665 599 P_____________ AL191971 18.7255 -59.3138 TD 30 -1 19 314
1971264N12321 1971 121 NA NA JANICE 1971-09-24 18:00:00 TS 19.4000 -60.0000 30 hurdat_atl main 599 O_____________ hurdat_atl AL191971 19.4000 -60.0000 TD 30 -1 19 316

About IBTrACS Database

This database is a web-friendly format of International Best Track Archive for Climate Stewardship (IBTrACS), a global best track data archive curated by NOAA dating back to 1842.

Updated: 2021-11-26